sensor_id;sensor_type;location;lat;lon;timestamp;P1;durP1;ratioP1;P2;durP2;ratioP2
30127;SDS011;16942;53.196;6.592;2023-04-01T00:00:47;6.13;;;5.20;;
30127;SDS011;16942;53.196;6.592;2023-04-01T00:03:13;6.43;;;5.10;;
30127;SDS011;16942;53.196;6.592;2023-04-01T00:05:39;6.37;;;5.47;;
30127;SDS011;16942;53.196;6.592;2023-04-01T00:08:05;5.97;;;5.10;;
30127;SDS011;16942;53.196;6.592;2023-04-01T00:10:31;5.20;;;4.70;;
30127;SDS011;16942;53.196;6.592;2023-04-01T00:12:57;6.10;;;4.70;;
30127;SDS011;16942;53.196;6.592;2023-04-01T00:15:23;8.97;;;5.27;;
30127;SDS011;16942;53.196;6.592;2023-04-01T00:17:49;5.63;;;4.97;;
30127;SDS011;16942;53.196;6.592;2023-04-01T00:20:15;7.37;;;5.70;;
30127;SDS011;16942;53.196;6.592;2023-04-01T00:22:41;6.40;;;5.37;;
30127;SDS011;16942;53.196;6.592;2023-04-01T00:25:07;8.17;;;5.33;;
30127;SDS011;16942;53.196;6.592;2023-04-01T00:27:33;8.13;;;5.77;;
30127;SDS011;16942;53.196;6.592;2023-04-01T00:30:00;6.17;;;5.23;;
30127;SDS011;16942;53.196;6.592;2023-04-01T00:32:26;8.97;;;6.20;;
30127;SDS011;16942;53.196;6.592;2023-04-01T00:34:52;6.90;;;5.67;;
30127;SDS011;16942;53.196;6.592;2023-04-01T00:37:18;6.27;;;5.03;;
30127;SDS011;16942;53.196;6.592;2023-04-01T00:39:45;6.33;;;5.20;;
30127;SDS011;16942;53.196;6.592;2023-04-01T00:42:12;6.20;;;5.20;;
30127;SDS011;16942;53.196;6.592;2023-04-01T00:44:38;6.43;;;5.37;;
30127;SDS011;16942;53.196;6.592;2023-04-01T00:47:05;7.13;;;5.30;;
30127;SDS011;16942;53.196;6.592;2023-04-01T00:49:39;7.67;;;5.57;;
30127;SDS011;16942;53.196;6.592;2023-04-01T00:52:05;8.17;;;5.80;;
30127;SDS011;16942;53.196;6.592;2023-04-01T00:54:33;8.23;;;6.23;;
30127;SDS011;16942;53.196;6.592;2023-04-01T00:57:01;8.57;;;6.87;;
30127;SDS011;16942;53.196;6.592;2023-04-01T00:59:29;8.23;;;6.23;;
30127;SDS011;16942;53.196;6.592;2023-04-01T01:01:55;10.30;;;5.90;;
30127;SDS011;16942;53.196;6.592;2023-04-01T01:04:22;9.60;;;7.20;;
30127;SDS011;16942;53.196;6.592;2023-04-01T01:16:51;7.53;;;6.30;;
30127;SDS011;16942;53.196;6.592;2023-04-01T01:27:17;10.67;;;6.63;;
30127;SDS011;16942;53.196;6.592;2023-04-01T01:37:39;17.50;;;10.90;;
30127;SDS011;16942;53.196;6.592;2023-04-01T01:40:07;20.47;;;12.37;;
30127;SDS011;16942;53.196;6.592;2023-04-01T01:42:35;17.57;;;11.57;;
30127;SDS011;16942;53.196;6.592;2023-04-01T01:45:02;15.77;;;11.13;;
30127;SDS011;16942;53.196;6.592;2023-04-01T01:47:29;14.27;;;8.73;;
30127;SDS011;16942;53.196;6.592;2023-04-01T01:49:56;12.63;;;8.87;;
30127;SDS011;16942;53.196;6.592;2023-04-01T01:52:23;9.60;;;7.83;;
30127;SDS011;16942;53.196;6.592;2023-04-01T01:54:53;8.97;;;6.87;;
30127;SDS011;16942;53.196;6.592;2023-04-01T01:57:22;8.60;;;6.70;;
30127;SDS011;16942;53.196;6.592;2023-04-01T01:59:49;10.83;;;7.10;;
30127;SDS011;16942;53.196;6.592;2023-04-01T02:02:16;8.57;;;6.50;;
30127;SDS011;16942;53.196;6.592;2023-04-01T02:04:43;9.57;;;7.13;;
30127;SDS011;16942;53.196;6.592;2023-04-01T02:07:18;7.93;;;6.33;;
30127;SDS011;16942;53.196;6.592;2023-04-01T02:09:45;12.63;;;7.37;;
30127;SDS011;16942;53.196;6.592;2023-04-01T02:12:12;8.67;;;7.10;;
30127;SDS011;16942;53.196;6.592;2023-04-01T02:17:33;10.63;;;7.07;;
30127;SDS011;16942;53.196;6.592;2023-04-01T02:20:01;9.37;;;6.83;;
30127;SDS011;16942;53.196;6.592;2023-04-01T02:22:30;12.30;;;6.57;;
30127;SDS011;16942;53.196;6.592;2023-04-01T02:24:58;11.40;;;7.50;;
30127;SDS011;16942;53.196;6.592;2023-04-01T02:27:25;9.47;;;6.70;;
30127;SDS011;16942;53.196;6.592;2023-04-01T02:29:51;10.20;;;6.63;;
30127;SDS011;16942;53.196;6.592;2023-04-01T02:32:18;9.83;;;7.00;;
30127;SDS011;16942;53.196;6.592;2023-04-01T02:34:45;12.97;;;7.10;;
30127;SDS011;16942;53.196;6.592;2023-04-01T02:37:11;9.37;;;6.50;;
30127;SDS011;16942;53.196;6.592;2023-04-01T02:39:38;9.50;;;6.53;;
30127;SDS011;16942;53.196;6.592;2023-04-01T02:42:04;8.00;;;6.63;;
30127;SDS011;16942;53.196;6.592;2023-04-01T02:44:30;12.50;;;6.30;;
30127;SDS011;16942;53.196;6.592;2023-04-01T02:46:56;13.97;;;7.07;;
30127;SDS011;16942;53.196;6.592;2023-04-01T02:49:22;8.60;;;6.40;;
30127;SDS011;16942;53.196;6.592;2023-04-01T02:51:48;9.53;;;6.73;;
30127;SDS011;16942;53.196;6.592;2023-04-01T02:54:14;8.37;;;6.63;;
30127;SDS011;16942;53.196;6.592;2023-04-01T02:56:40;11.40;;;7.43;;
30127;SDS011;16942;53.196;6.592;2023-04-01T02:59:06;8.97;;;6.93;;
30127;SDS011;16942;53.196;6.592;2023-04-01T03:01:33;9.23;;;6.90;;
30127;SDS011;16942;53.196;6.592;2023-04-01T03:03:59;9.20;;;7.37;;
30127;SDS011;16942;53.196;6.592;2023-04-01T03:06:25;10.53;;;7.17;;
30127;SDS011;16942;53.196;6.592;2023-04-01T03:08:51;13.30;;;8.60;;
30127;SDS011;16942;53.196;6.592;2023-04-01T03:11:17;13.33;;;8.37;;
30127;SDS011;16942;53.196;6.592;2023-04-01T03:13:43;11.43;;;7.73;;
30127;SDS011;16942;53.196;6.592;2023-04-01T03:16:09;12.37;;;8.10;;
30127;SDS011;16942;53.196;6.592;2023-04-01T03:18:35;11.87;;;8.73;;
30127;SDS011;16942;53.196;6.592;2023-04-01T03:23:39;14.10;;;8.90;;
30127;SDS011;16942;53.196;6.592;2023-04-01T03:26:06;12.03;;;9.17;;
30127;SDS011;16942;53.196;6.592;2023-04-01T03:28:33;13.53;;;9.70;;
30127;SDS011;16942;53.196;6.592;2023-04-01T03:30:59;14.47;;;9.67;;
30127;SDS011;16942;53.196;6.592;2023-04-01T03:33:25;13.07;;;9.50;;
30127;SDS011;16942;53.196;6.592;2023-04-01T03:35:51;13.90;;;10.57;;
30127;SDS011;16942;53.196;6.592;2023-04-01T03:38:17;16.07;;;9.53;;
30127;SDS011;16942;53.196;6.592;2023-04-01T03:40:43;16.43;;;10.50;;
30127;SDS011;16942;53.196;6.592;2023-04-01T03:43:09;14.93;;;9.87;;
30127;SDS011;16942;53.196;6.592;2023-04-01T03:45:36;16.33;;;10.37;;
30127;SDS011;16942;53.196;6.592;2023-04-01T03:48:08;15.80;;;10.33;;
30127;SDS011;16942;53.196;6.592;2023-04-01T03:50:34;18.60;;;10.43;;
30127;SDS011;16942;53.196;6.592;2023-04-01T03:53:00;16.50;;;10.57;;
30127;SDS011;16942;53.196;6.592;2023-04-01T03:55:26;16.33;;;10.23;;
30127;SDS011;16942;53.196;6.592;2023-04-01T03:57:52;17.07;;;11.40;;
30127;SDS011;16942;53.196;6.592;2023-04-01T04:00:18;16.47;;;9.70;;
30127;SDS011;16942;53.196;6.592;2023-04-01T04:02:44;15.00;;;10.40;;
30127;SDS011;16942;53.196;6.592;2023-04-01T04:05:10;15.47;;;10.60;;
30127;SDS011;16942;53.196;6.592;2023-04-01T04:07:38;16.97;;;10.30;;
30127;SDS011;16942;53.196;6.592;2023-04-01T04:10:04;16.30;;;10.53;;
30127;SDS011;16942;53.196;6.592;2023-04-01T04:12:30;15.87;;;11.07;;
30127;SDS011;16942;53.196;6.592;2023-04-01T04:14:56;17.13;;;10.63;;
30127;SDS011;16942;53.196;6.592;2023-04-01T04:17:22;18.73;;;10.93;;
30127;SDS011;16942;53.196;6.592;2023-04-01T04:19:48;21.67;;;11.17;;
30127;SDS011;16942;53.196;6.592;2023-04-01T04:22:14;15.03;;;10.10;;
30127;SDS011;16942;53.196;6.592;2023-04-01T04:24:40;18.00;;;10.77;;
30127;SDS011;16942;53.196;6.592;2023-04-01T04:27:06;16.33;;;10.87;;
30127;SDS011;16942;53.196;6.592;2023-04-01T04:29:32;19.27;;;11.33;;
30127;SDS011;16942;53.196;6.592;2023-04-01T04:31:58;16.67;;;10.70;;
30127;SDS011;16942;53.196;6.592;2023-04-01T04:34:25;15.77;;;10.70;;
30127;SDS011;16942;53.196;6.592;2023-04-01T04:36:51;18.93;;;12.63;;
30127;SDS011;16942;53.196;6.592;2023-04-01T04:39:17;18.43;;;11.90;;
30127;SDS011;16942;53.196;6.592;2023-04-01T04:41:43;19.40;;;10.73;;
30127;SDS011;16942;53.196;6.592;2023-04-01T04:44:09;18.53;;;12.07;;
30127;SDS011;16942;53.196;6.592;2023-04-01T04:46:35;17.90;;;11.73;;
30127;SDS011;16942;53.196;6.592;2023-04-01T04:49:02;17.23;;;10.90;;
30127;SDS011;16942;53.196;6.592;2023-04-01T04:51:29;21.67;;;11.93;;
30127;SDS011;16942;53.196;6.592;2023-04-01T04:53:55;20.37;;;12.03;;
30127;SDS011;16942;53.196;6.592;2023-04-01T04:56:21;17.47;;;11.43;;
30127;SDS011;16942;53.196;6.592;2023-04-01T04:58:47;18.00;;;12.30;;
30127;SDS011;16942;53.196;6.592;2023-04-01T05:01:14;18.03;;;12.23;;
30127;SDS011;16942;53.196;6.592;2023-04-01T05:03:41;17.03;;;11.30;;
30127;SDS011;16942;53.196;6.592;2023-04-01T05:06:08;20.67;;;11.77;;
30127;SDS011;16942;53.196;6.592;2023-04-01T05:08:35;16.60;;;11.87;;
30127;SDS011;16942;53.196;6.592;2023-04-01T05:11:01;16.10;;;11.57;;
30127;SDS011;16942;53.196;6.592;2023-04-01T05:13:27;16.80;;;11.20;;
30127;SDS011;16942;53.196;6.592;2023-04-01T05:15:53;17.60;;;11.63;;
30127;SDS011;16942;53.196;6.592;2023-04-01T05:18:19;19.50;;;11.83;;
30127;SDS011;16942;53.196;6.592;2023-04-01T05:20:46;18.03;;;11.67;;
30127;SDS011;16942;53.196;6.592;2023-04-01T05:23:12;17.70;;;11.70;;
30127;SDS011;16942;53.196;6.592;2023-04-01T05:25:38;18.03;;;11.60;;
30127;SDS011;16942;53.196;6.592;2023-04-01T05:28:04;18.00;;;11.70;;
30127;SDS011;16942;53.196;6.592;2023-04-01T05:30:30;15.70;;;10.63;;
30127;SDS011;16942;53.196;6.592;2023-04-01T05:32:56;15.60;;;10.67;;
30127;SDS011;16942;53.196;6.592;2023-04-01T05:35:23;16.43;;;11.27;;
30127;SDS011;16942;53.196;6.592;2023-04-01T05:37:49;15.43;;;10.00;;
30127;SDS011;16942;53.196;6.592;2023-04-01T05:40:15;14.40;;;10.07;;
30127;SDS011;16942;53.196;6.592;2023-04-01T05:42:41;15.83;;;9.90;;
30127;SDS011;16942;53.196;6.592;2023-04-01T05:45:07;16.00;;;9.53;;
30127;SDS011;16942;53.196;6.592;2023-04-01T05:47:33;16.87;;;9.77;;
30127;SDS011;16942;53.196;6.592;2023-04-01T05:49:59;17.23;;;10.07;;
30127;SDS011;16942;53.196;6.592;2023-04-01T05:52:25;13.77;;;9.50;;
30127;SDS011;16942;53.196;6.592;2023-04-01T05:54:52;15.33;;;10.87;;
30127;SDS011;16942;53.196;6.592;2023-04-01T05:57:18;14.67;;;9.73;;
30127;SDS011;16942;53.196;6.592;2023-04-01T05:59:44;14.73;;;10.43;;
30127;SDS011;16942;53.196;6.592;2023-04-01T06:02:10;17.30;;;9.60;;
30127;SDS011;16942;53.196;6.592;2023-04-01T06:04:37;15.73;;;10.53;;
30127;SDS011;16942;53.196;6.592;2023-04-01T06:07:11;21.03;;;10.70;;
30127;SDS011;16942;53.196;6.592;2023-04-01T06:09:37;18.83;;;10.00;;
30127;SDS011;16942;53.196;6.592;2023-04-01T06:17:26;17.93;;;11.33;;
30127;SDS011;16942;53.196;6.592;2023-04-01T06:43:16;21.27;;;12.57;;
30127;SDS011;16942;53.196;6.592;2023-04-01T06:48:17;24.50;;;14.80;;
30127;SDS011;16942;53.196;6.592;2023-04-01T06:50:58;21.37;;;13.50;;
30127;SDS011;16942;53.196;6.592;2023-04-01T06:53:52;23.47;;;13.97;;
30127;SDS011;16942;53.196;6.592;2023-04-01T06:56:15;22.10;;;13.47;;
30127;SDS011;16942;53.196;6.592;2023-04-01T06:58:48;21.10;;;14.30;;
30127;SDS011;16942;53.196;6.592;2023-04-01T07:01:20;22.83;;;14.80;;
30127;SDS011;16942;53.196;6.592;2023-04-01T07:03:58;24.27;;;14.80;;
30127;SDS011;16942;53.196;6.592;2023-04-01T07:06:36;22.90;;;14.77;;
30127;SDS011;16942;53.196;6.592;2023-04-01T07:09:08;22.33;;;14.27;;
30127;SDS011;16942;53.196;6.592;2023-04-01T07:11:37;22.30;;;13.93;;
30127;SDS011;16942;53.196;6.592;2023-04-01T07:16:51;20.30;;;13.80;;
30127;SDS011;16942;53.196;6.592;2023-04-01T07:21:56;24.27;;;15.30;;
30127;SDS011;16942;53.196;6.592;2023-04-01T07:24:26;23.20;;;14.50;;
30127;SDS011;16942;53.196;6.592;2023-04-01T07:26:54;26.70;;;15.13;;
30127;SDS011;16942;53.196;6.592;2023-04-01T07:29:20;23.27;;;14.00;;
30127;SDS011;16942;53.196;6.592;2023-04-01T07:37:26;21.20;;;13.97;;
30127;SDS011;16942;53.196;6.592;2023-04-01T07:50:31;22.87;;;15.03;;
30127;SDS011;16942;53.196;6.592;2023-04-01T07:58:22;18.90;;;11.63;;
30127;SDS011;16942;53.196;6.592;2023-04-01T08:00:51;16.47;;;11.60;;
30127;SDS011;16942;53.196;6.592;2023-04-01T08:05:59;20.27;;;12.33;;
30127;SDS011;16942;53.196;6.592;2023-04-01T08:16:22;20.20;;;12.20;;
30127;SDS011;16942;53.196;6.592;2023-04-01T08:21:21;20.40;;;12.50;;
30127;SDS011;16942;53.196;6.592;2023-04-01T08:23:52;18.40;;;12.50;;
30127;SDS011;16942;53.196;6.592;2023-04-01T08:33:53;13.43;;;9.30;;
30127;SDS011;16942;53.196;6.592;2023-04-01T08:36:29;15.93;;;9.93;;
30127;SDS011;16942;53.196;6.592;2023-04-01T09:07:45;7.07;;;5.67;;
30127;SDS011;16942;53.196;6.592;2023-04-01T09:12:50;5.20;;;4.50;;
30127;SDS011;16942;53.196;6.592;2023-04-01T09:15:30;5.90;;;4.47;;
30127;SDS011;16942;53.196;6.592;2023-04-01T09:18:38;6.70;;;4.20;;
30127;SDS011;16942;53.196;6.592;2023-04-01T09:20:58;5.97;;;3.77;;
30127;SDS011;16942;53.196;6.592;2023-04-01T09:34:25;3.50;;;3.07;;
30127;SDS011;16942;53.196;6.592;2023-04-01T09:39:37;4.43;;;2.47;;
30127;SDS011;16942;53.196;6.592;2023-04-01T09:45:07;3.63;;;2.27;;
30127;SDS011;16942;53.196;6.592;2023-04-01T09:50:47;3.23;;;2.60;;
30127;SDS011;16942;53.196;6.592;2023-04-01T09:53:36;3.67;;;2.43;;
30127;SDS011;16942;53.196;6.592;2023-04-01T10:01:28;3.00;;;2.57;;
30127;SDS011;16942;53.196;6.592;2023-04-01T10:12:24;2.67;;;2.43;;
30127;SDS011;16942;53.196;6.592;2023-04-01T10:30:50;3.87;;;2.40;;
30127;SDS011;16942;53.196;6.592;2023-04-01T10:36:32;4.27;;;2.23;;
30127;SDS011;16942;53.196;6.592;2023-04-01T10:50:09;1.70;;;1.60;;
30127;SDS011;16942;53.196;6.592;2023-04-01T10:55:14;5.07;;;1.87;;
30127;SDS011;16942;53.196;6.592;2023-04-01T10:58:02;3.07;;;1.80;;
30127;SDS011;16942;53.196;6.592;2023-04-01T11:18:18;4.60;;;2.57;;
30127;SDS011;16942;53.196;6.592;2023-04-01T11:28:41;3.23;;;1.80;;
30127;SDS011;16942;53.196;6.592;2023-04-01T11:39:22;3.17;;;1.90;;
30127;SDS011;16942;53.196;6.592;2023-04-01T11:41:52;5.00;;;2.00;;
30127;SDS011;16942;53.196;6.592;2023-04-01T11:44:24;2.50;;;1.90;;
30127;SDS011;16942;53.196;6.592;2023-04-01T11:47:15;2.03;;;1.60;;
30127;SDS011;16942;53.196;6.592;2023-04-01T12:02:55;1.90;;;1.70;;
30127;SDS011;16942;53.196;6.592;2023-04-01T12:13:19;3.00;;;1.90;;
30127;SDS011;16942;53.196;6.592;2023-04-01T12:18:17;1.60;;;1.30;;
30127;SDS011;16942;53.196;6.592;2023-04-01T12:28:39;11.87;;;3.63;;
30127;SDS011;16942;53.196;6.592;2023-04-01T12:33:45;2.10;;;1.60;;
30127;SDS011;16942;53.196;6.592;2023-04-01T12:36:18;2.73;;;1.50;;
30127;SDS011;16942;53.196;6.592;2023-04-01T12:52:13;3.83;;;2.03;;
30127;SDS011;16942;53.196;6.592;2023-04-01T13:07:28;1.60;;;1.50;;
30127;SDS011;16942;53.196;6.592;2023-04-01T13:09:59;1.77;;;1.67;;
30127;SDS011;16942;53.196;6.592;2023-04-01T13:18:03;2.70;;;2.13;;
30127;SDS011;16942;53.196;6.592;2023-04-01T13:25:27;4.37;;;2.63;;
30127;SDS011;16942;53.196;6.592;2023-04-01T13:33:21;2.00;;;1.80;;
30127;SDS011;16942;53.196;6.592;2023-04-01T13:35:58;5.23;;;1.93;;
30127;SDS011;16942;53.196;6.592;2023-04-01T14:04:46;2.07;;;1.63;;
30127;SDS011;16942;53.196;6.592;2023-04-01T14:15:07;1.90;;;1.37;;
30127;SDS011;16942;53.196;6.592;2023-04-01T14:20:20;1.77;;;1.43;;
30127;SDS011;16942;53.196;6.592;2023-04-01T14:33:11;2.70;;;1.60;;
30127;SDS011;16942;53.196;6.592;2023-04-01T14:35:42;1.90;;;1.47;;
30127;SDS011;16942;53.196;6.592;2023-04-01T14:43:38;2.27;;;1.47;;
30127;SDS011;16942;53.196;6.592;2023-04-01T14:56:36;2.10;;;1.50;;
30127;SDS011;16942;53.196;6.592;2023-04-01T14:59:04;1.73;;;1.53;;
30127;SDS011;16942;53.196;6.592;2023-04-01T15:19:42;1.90;;;1.77;;
30127;SDS011;16942;53.196;6.592;2023-04-01T15:24:52;6.53;;;2.70;;
30127;SDS011;16942;53.196;6.592;2023-04-01T15:27:25;4.73;;;2.27;;
30127;SDS011;16942;53.196;6.592;2023-04-01T15:29:57;2.70;;;2.03;;
30127;SDS011;16942;53.196;6.592;2023-04-01T15:45:59;5.33;;;2.93;;
30127;SDS011;16942;53.196;6.592;2023-04-01T15:51:11;6.57;;;2.57;;
30127;SDS011;16942;53.196;6.592;2023-04-01T15:53:49;8.00;;;3.00;;
30127;SDS011;16942;53.196;6.592;2023-04-01T16:06:47;2.67;;;2.30;;
30127;SDS011;16942;53.196;6.592;2023-04-01T16:12:18;4.23;;;2.60;;
30127;SDS011;16942;53.196;6.592;2023-04-01T16:14:50;3.90;;;3.20;;
30127;SDS011;16942;53.196;6.592;2023-04-01T16:17:49;4.73;;;3.27;;
30127;SDS011;16942;53.196;6.592;2023-04-01T16:20:20;6.13;;;3.20;;
30127;SDS011;16942;53.196;6.592;2023-04-01T16:22:49;5.77;;;3.60;;
30127;SDS011;16942;53.196;6.592;2023-04-01T16:25:26;6.07;;;3.37;;
30127;SDS011;16942;53.196;6.592;2023-04-01T16:30:35;5.00;;;3.67;;
30127;SDS011;16942;53.196;6.592;2023-04-01T16:35:49;9.70;;;4.13;;
30127;SDS011;16942;53.196;6.592;2023-04-01T16:41:24;5.87;;;3.70;;
30127;SDS011;16942;53.196;6.592;2023-04-01T16:43:51;6.17;;;3.80;;
30127;SDS011;16942;53.196;6.592;2023-04-01T16:54:14;8.03;;;3.80;;
30127;SDS011;16942;53.196;6.592;2023-04-01T16:56:43;4.77;;;3.47;;
30127;SDS011;16942;53.196;6.592;2023-04-01T16:59:14;5.80;;;3.47;;
30127;SDS011;16942;53.196;6.592;2023-04-01T17:02:02;5.43;;;3.50;;
30127;SDS011;16942;53.196;6.592;2023-04-01T17:04:33;5.30;;;4.00;;
30127;SDS011;16942;53.196;6.592;2023-04-01T17:12:17;8.80;;;3.77;;
30127;SDS011;16942;53.196;6.592;2023-04-01T17:14:49;6.27;;;4.03;;
30127;SDS011;16942;53.196;6.592;2023-04-01T17:17:23;7.67;;;3.67;;
30127;SDS011;16942;53.196;6.592;2023-04-01T17:20:11;10.37;;;3.80;;
30127;SDS011;16942;53.196;6.592;2023-04-01T17:27:41;6.40;;;3.60;;
30127;SDS011;16942;53.196;6.592;2023-04-01T17:30:13;9.83;;;3.77;;
30127;SDS011;16942;53.196;6.592;2023-04-01T17:43:52;8.03;;;4.10;;
30127;SDS011;16942;53.196;6.592;2023-04-01T17:49:01;5.13;;;3.90;;
30127;SDS011;16942;53.196;6.592;2023-04-01T17:59:37;6.20;;;4.00;;
30127;SDS011;16942;53.196;6.592;2023-04-01T18:02:23;8.67;;;4.23;;
30127;SDS011;16942;53.196;6.592;2023-04-01T18:15:08;10.43;;;4.57;;
30127;SDS011;16942;53.196;6.592;2023-04-01T18:17:42;6.67;;;4.77;;
30127;SDS011;16942;53.196;6.592;2023-04-01T18:25:27;10.40;;;4.93;;
30127;SDS011;16942;53.196;6.592;2023-04-01T18:28:40;9.70;;;5.00;;
30127;SDS011;16942;53.196;6.592;2023-04-01T18:30:40;8.77;;;4.53;;
30127;SDS011;16942;53.196;6.592;2023-04-01T18:38:12;9.47;;;4.73;;
30127;SDS011;16942;53.196;6.592;2023-04-01T18:40:43;12.87;;;5.17;;
30127;SDS011;16942;53.196;6.592;2023-04-01T18:45:43;8.90;;;4.90;;
30127;SDS011;16942;53.196;6.592;2023-04-01T18:50:43;9.67;;;5.30;;
30127;SDS011;16942;53.196;6.592;2023-04-01T18:53:24;9.03;;;4.43;;
30127;SDS011;16942;53.196;6.592;2023-04-01T18:56:03;10.90;;;4.97;;
30127;SDS011;16942;53.196;6.592;2023-04-01T19:01:14;11.20;;;5.30;;
30127;SDS011;16942;53.196;6.592;2023-04-01T19:06:23;10.17;;;4.77;;
30127;SDS011;16942;53.196;6.592;2023-04-01T19:08:52;11.67;;;4.90;;
30127;SDS011;16942;53.196;6.592;2023-04-01T19:11:21;8.47;;;5.00;;
30127;SDS011;16942;53.196;6.592;2023-04-01T19:16:42;10.60;;;5.40;;
30127;SDS011;16942;53.196;6.592;2023-04-01T19:21:41;7.63;;;5.10;;
30127;SDS011;16942;53.196;6.592;2023-04-01T19:27:03;11.10;;;5.23;;
30127;SDS011;16942;53.196;6.592;2023-04-01T19:32:28;10.43;;;4.93;;
30127;SDS011;16942;53.196;6.592;2023-04-01T19:55:48;12.83;;;4.93;;
30127;SDS011;16942;53.196;6.592;2023-04-01T20:00:51;7.87;;;4.73;;
30127;SDS011;16942;53.196;6.592;2023-04-01T20:19:13;7.50;;;4.00;;
30127;SDS011;16942;53.196;6.592;2023-04-01T20:26:45;9.27;;;4.37;;
30127;SDS011;16942;53.196;6.592;2023-04-01T20:42:57;8.27;;;3.40;;
30127;SDS011;16942;53.196;6.592;2023-04-01T20:45:35;6.27;;;3.37;;
30127;SDS011;16942;53.196;6.592;2023-04-01T20:50:49;5.17;;;3.73;;
30127;SDS011;16942;53.196;6.592;2023-04-01T20:53:19;7.83;;;4.13;;
30127;SDS011;16942;53.196;6.592;2023-04-01T20:58:49;11.87;;;3.97;;
30127;SDS011;16942;53.196;6.592;2023-04-01T21:06:29;6.77;;;3.90;;
30127;SDS011;16942;53.196;6.592;2023-04-01T21:37:53;8.97;;;4.37;;
30127;SDS011;16942;53.196;6.592;2023-04-01T21:40:32;7.83;;;3.60;;
30127;SDS011;16942;53.196;6.592;2023-04-01T21:45:50;6.93;;;3.27;;
30127;SDS011;16942;53.196;6.592;2023-04-01T21:48:34;6.90;;;3.33;;
30127;SDS011;16942;53.196;6.592;2023-04-01T21:51:14;7.23;;;3.60;;
30127;SDS011;16942;53.196;6.592;2023-04-01T22:07:06;8.53;;;3.43;;
30127;SDS011;16942;53.196;6.592;2023-04-01T22:09:37;8.80;;;3.50;;
30127;SDS011;16942;53.196;6.592;2023-04-01T22:12:07;6.67;;;3.50;;
30127;SDS011;16942;53.196;6.592;2023-04-01T22:14:48;9.57;;;3.23;;
30127;SDS011;16942;53.196;6.592;2023-04-01T22:17:24;5.00;;;2.57;;
30127;SDS011;16942;53.196;6.592;2023-04-01T22:32:27;5.90;;;2.90;;
30127;SDS011;16942;53.196;6.592;2023-04-01T22:37:23;5.23;;;2.57;;
30127;SDS011;16942;53.196;6.592;2023-04-01T22:52:42;8.17;;;3.33;;
30127;SDS011;16942;53.196;6.592;2023-04-01T22:55:22;4.80;;;2.67;;
30127;SDS011;16942;53.196;6.592;2023-04-01T22:58:07;6.03;;;3.00;;
30127;SDS011;16942;53.196;6.592;2023-04-01T23:00:48;4.23;;;2.67;;
30127;SDS011;16942;53.196;6.592;2023-04-01T23:03:22;8.07;;;3.00;;
30127;SDS011;16942;53.196;6.592;2023-04-01T23:05:52;9.33;;;2.63;;
30127;SDS011;16942;53.196;6.592;2023-04-01T23:11:04;7.73;;;2.83;;
30127;SDS011;16942;53.196;6.592;2023-04-01T23:13:34;7.23;;;2.40;;
30127;SDS011;16942;53.196;6.592;2023-04-01T23:16:03;4.50;;;2.30;;
30127;SDS011;16942;53.196;6.592;2023-04-01T23:21:15;7.67;;;3.03;;
30127;SDS011;16942;53.196;6.592;2023-04-01T23:26:12;5.53;;;2.57;;
30127;SDS011;16942;53.196;6.592;2023-04-01T23:28:40;7.83;;;2.67;;
30127;SDS011;16942;53.196;6.592;2023-04-01T23:31:52;7.67;;;2.80;;
30127;SDS011;16942;53.196;6.592;2023-04-01T23:33:54;9.30;;;2.77;;
30127;SDS011;16942;53.196;6.592;2023-04-01T23:36:21;4.37;;;2.50;;
30127;SDS011;16942;53.196;6.592;2023-04-01T23:38:47;6.60;;;2.77;;
30127;SDS011;16942;53.196;6.592;2023-04-01T23:41:32;8.50;;;3.20;;
30127;SDS011;16942;53.196;6.592;2023-04-01T23:44:02;3.90;;;2.37;;
30127;SDS011;16942;53.196;6.592;2023-04-01T23:46:30;7.50;;;2.70;;
30127;SDS011;16942;53.196;6.592;2023-04-01T23:48:56;6.90;;;3.60;;
30127;SDS011;16942;53.196;6.592;2023-04-01T23:51:24;6.00;;;2.67;;
30127;SDS011;16942;53.196;6.592;2023-04-01T23:53:59;5.00;;;2.03;;
30127;SDS011;16942;53.196;6.592;2023-04-01T23:56:41;6.97;;;2.87;;
30127;SDS011;16942;53.196;6.592;2023-04-01T23:59:11;5.87;;;2.70;;
